createdAt,value
2019-05-03T00:00:18.839Z,99972.61
2019-05-03T00:02:56.645Z,99967.75
2019-05-03T00:05:34.243Z,99967.88
2019-05-03T00:08:05.105Z,99964.52
2019-05-03T00:10:36.267Z,99972.81
2019-05-03T00:13:06.199Z,99973.74
2019-05-03T00:15:40.427Z,99962.45
2019-05-03T00:18:11.693Z,99967.39
2019-05-03T00:20:42.049Z,99963.33
2019-05-03T00:23:12.211Z,99954.77
2019-05-03T00:25:42.111Z,99968.02
2019-05-03T00:28:13.310Z,99970.63
2019-05-03T00:30:43.305Z,99977.67
2019-05-03T00:33:13.243Z,99971.70
2019-05-03T00:35:53.601Z,99976.06
2019-05-03T00:38:23.756Z,99972.88
2019-05-03T00:40:53.687Z,99968.73
2019-05-03T00:43:23.621Z,99974.45
2019-05-03T00:45:53.551Z,99982.91
2019-05-03T00:48:23.437Z,99981.41
2019-05-03T00:50:53.415Z,99973.31
2019-05-03T00:53:23.351Z,99971.32
2019-05-03T00:55:54.208Z,99971.72
2019-05-03T00:58:24.252Z,99974.05
2019-05-03T01:00:54.185Z,99968.27
2019-05-03T01:03:24.114Z,99967.80
2019-05-03T01:05:54.052Z,99966.91
2019-05-03T01:08:23.985Z,99965.85
2019-05-03T01:10:53.919Z,99963.09
2019-05-03T01:16:02.927Z,99963.14
2019-05-03T01:18:32.930Z,99964.81
2019-05-03T01:21:02.971Z,99961.20
2019-05-03T01:23:32.917Z,99960.59
2019-05-03T01:26:02.798Z,99958.47
2019-05-03T01:28:32.663Z,99959.90
2019-05-03T01:31:02.755Z,99959.31
2019-05-03T01:33:32.742Z,99955.25
2019-05-03T01:36:02.926Z,99958.39
2019-05-03T01:38:32.921Z,99957.56
2019-05-03T01:41:02.746Z,99956.82
2019-05-03T01:43:32.647Z,99962.37
2019-05-03T01:46:02.868Z,99968.24
2019-05-03T01:48:34.500Z,99951.67
2019-05-03T01:51:23.972Z,99947.78
2019-05-03T01:53:53.868Z,99957.70
2019-05-03T01:56:23.740Z,99962.61
2019-05-03T01:58:53.680Z,99963.64
2019-05-03T02:01:27.900Z,99959.95
2019-05-03T02:04:05.311Z,99969.03
2019-05-03T02:06:35.243Z,99950.28
2019-05-03T02:09:07.655Z,99949.55
2019-05-03T02:11:37.667Z,99957.72
2019-05-03T02:14:07.499Z,99963.17
2019-05-03T02:16:37.426Z,99957.39
2019-05-03T02:19:07.368Z,99956.73
2019-05-03T02:21:37.302Z,99960.24
2019-05-03T02:24:08.361Z,99958.78
2019-05-03T02:26:38.294Z,99965.88
2019-05-03T02:29:08.184Z,99967.23
2019-05-03T02:31:38.168Z,99958.30
2019-05-03T02:34:08.302Z,99966.92
2019-05-03T02:36:38.243Z,99967.80
2019-05-03T02:39:13.321Z,99970.80
2019-05-03T02:41:45.242Z,99969.23
2019-05-03T02:44:15.849Z,99972.09
2019-05-03T02:46:56.594Z,99978.33
2019-05-03T02:49:27.373Z,99971.55
2019-05-03T02:51:57.181Z,99992.17
2019-05-03T02:54:27.347Z,99999.50
2019-05-03T02:56:57.318Z,99990.78
2019-05-03T02:59:27.282Z,99988.98
2019-05-03T03:01:57.330Z,99994.40
2019-05-03T03:04:27.532Z,99994.21
2019-05-03T03:06:58.523Z,100005.49
2019-05-03T03:09:29.851Z,100001.38
2019-05-03T03:11:59.797Z,99996.38
2019-05-03T03:14:32.830Z,99998.75
2019-05-03T03:17:06.681Z,99996.75
2019-05-03T03:19:38.427Z,100001.77
2019-05-03T03:22:11.180Z,100004.25
2019-05-03T03:24:45.905Z,100013.42
2019-05-03T03:27:18.973Z,100013.20
2019-05-03T03:29:51.881Z,100002.57
2019-05-03T03:32:29.079Z,100015.62
2019-05-03T03:35:11.605Z,100012.39
2019-05-03T03:37:40.799Z,100008.91
2019-05-03T03:40:13.205Z,100017.20
2019-05-03T03:42:44.989Z,100018.84
2019-05-03T03:45:16.713Z,100022.98
2019-05-03T03:47:50.150Z,100024.87
2019-05-03T03:50:20.083Z,100021.09
2019-05-03T03:52:52.589Z,100023.58
2019-05-03T03:55:26.487Z,100024.16
2019-05-03T03:57:56.085Z,100034.02
2019-05-03T04:00:26.103Z,100037.30
2019-05-03T04:02:56.220Z,100040.44
2019-05-03T04:05:26.552Z,100032.09
2019-05-03T04:07:56.689Z,100025.92
2019-05-03T04:10:27.419Z,100039.92
2019-05-03T04:12:58.296Z,100032.30
2019-05-03T04:15:37.055Z,100033.06
2019-05-03T04:18:25.677Z,100030.95
2019-05-03T04:20:56.461Z,100014.14
2019-05-03T04:23:26.411Z,100012.84
2019-05-03T04:25:56.977Z,100016.17
2019-05-03T04:28:27.531Z,100016.38
2019-05-03T04:30:57.399Z,100018.97
2019-05-03T04:33:27.452Z,100022.28
2019-05-03T04:35:57.376Z,100022.82
2019-05-03T04:38:27.303Z,100027.84
2019-05-03T04:40:57.240Z,100034.38
2019-05-03T04:43:27.281Z,100030.20
2019-05-03T04:46:16.402Z,100031.03
2019-05-03T04:48:45.870Z,100031.47
2019-05-03T04:51:16.653Z,100030.83
2019-05-03T04:53:48.489Z,100025.27
2019-05-03T04:56:18.432Z,100025.22
2019-05-03T04:58:48.576Z,100034.08
2019-05-03T05:01:18.502Z,100038.30
2019-05-03T05:03:48.539Z,100035.94
2019-05-03T05:06:18.465Z,100041.05
2019-05-03T05:08:48.400Z,100035.69
2019-05-03T05:11:18.345Z,100035.22
2019-05-03T05:13:48.585Z,100030.59
2019-05-03T05:16:18.413Z,100040.92
2019-05-03T05:18:50.000Z,100031.64
2019-05-03T05:21:27.190Z,100033.09
2019-05-03T05:24:01.640Z,100032.03
2019-05-03T05:26:39.331Z,100035.89
2019-05-03T05:29:10.793Z,100032.98
2019-05-03T05:31:40.726Z,100034.44
2019-05-03T05:34:10.632Z,100027.30
2019-05-03T05:36:40.599Z,100032.58
2019-05-03T05:39:15.177Z,100040.83
2019-05-03T05:41:45.093Z,100028.56
2019-05-03T05:44:15.112Z,100032.73
2019-05-03T05:46:54.275Z,100042.56
2019-05-03T05:49:44.249Z,100036.33
2019-05-03T05:52:15.492Z,100041.93
2019-05-03T05:54:47.173Z,100038.44
2019-05-03T05:57:25.626Z,100045.00
2019-05-03T06:00:00.324Z,100038.52
2019-05-03T06:02:30.375Z,100046.47
2019-05-03T06:05:00.306Z,100046.77
2019-05-03T06:07:31.872Z,100051.44
2019-05-03T06:10:09.174Z,100052.80
2019-05-03T06:12:40.746Z,100055.55
2019-05-03T06:15:12.467Z,100059.45
2019-05-03T06:17:53.091Z,100051.83
2019-05-03T06:20:27.247Z,100050.11
2019-05-03T06:22:58.675Z,100038.88
2019-05-03T06:25:30.255Z,100052.44
2019-05-03T06:28:14.329Z,100052.73
2019-05-03T06:30:39.318Z,100055.93
2019-05-03T06:33:10.304Z,100059.30
2019-05-03T06:35:40.378Z,100070.49
2019-05-03T06:38:10.259Z,100065.62
2019-05-03T06:40:40.216Z,100072.68
2019-05-03T06:43:12.901Z,100082.90
2019-05-03T06:45:46.624Z,100068.88
2019-05-03T06:48:17.555Z,100079.53
2019-05-03T06:50:46.990Z,100069.56
2019-05-03T06:53:16.928Z,100076.23
2019-05-03T06:55:48.435Z,100080.38
2019-05-03T06:58:30.348Z,100077.05
2019-05-03T07:00:56.138Z,100073.94
2019-05-03T07:03:28.223Z,100087.77
2019-05-03T07:06:16.257Z,100070.27
2019-05-03T07:08:54.951Z,100080.05
2019-05-03T07:11:24.923Z,100080.42
2019-05-03T07:13:55.985Z,100079.37
2019-05-03T07:16:25.918Z,100090.41
2019-05-03T07:18:58.444Z,100081.33
2019-05-03T07:21:27.425Z,100079.73
2019-05-03T07:23:57.368Z,100083.55
2019-05-03T07:26:27.400Z,100087.81
2019-05-03T07:28:57.330Z,100091.69
2019-05-03T07:31:27.261Z,100086.09
2019-05-03T07:33:57.211Z,100091.08
2019-05-03T07:36:28.319Z,100087.38
2019-05-03T07:38:59.483Z,100080.52
2019-05-03T07:41:29.460Z,100089.03
2019-05-03T07:43:59.393Z,100082.41
2019-05-03T07:46:31.775Z,100088.19
2019-05-03T07:49:01.008Z,100081.97
2019-05-03T07:51:31.039Z,100094.52
2019-05-03T07:54:00.972Z,100095.39
2019-05-03T07:56:35.676Z,100101.08
2019-05-03T07:59:07.193Z,100085.21
2019-05-03T08:01:41.704Z,100103.84
2019-05-03T08:04:11.666Z,100093.74
2019-05-03T08:06:41.503Z,100096.92
2019-05-03T08:09:11.522Z,100088.77
2019-05-03T08:11:41.455Z,100087.70
2019-05-03T08:14:11.424Z,100083.22
2019-05-03T08:16:41.441Z,100084.05
2019-05-03T08:19:11.318Z,100084.32
2019-05-03T08:21:41.203Z,100086.34
2019-05-03T08:24:11.392Z,100084.91
2019-05-03T08:26:41.273Z,100097.08
2019-05-03T08:29:16.160Z,100094.97
2019-05-03T08:31:45.522Z,100100.73
2019-05-03T08:34:34.780Z,100093.66
2019-05-03T08:37:06.615Z,100102.69
2019-05-03T08:39:37.435Z,100104.06
2019-05-03T08:42:09.112Z,100088.93
2019-05-03T08:44:39.042Z,100100.84
2019-05-03T08:47:08.984Z,100105.06
2019-05-03T08:49:38.915Z,100098.27
2019-05-03T08:52:08.853Z,100104.84
2019-05-03T08:54:38.890Z,100109.53
2019-05-03T08:57:08.816Z,100107.37
2019-05-03T08:59:38.772Z,100108.72
2019-05-03T09:02:17.771Z,100118.27
2019-05-03T09:04:43.033Z,100100.25
2019-05-03T09:07:11.937Z,100095.56
2019-05-03T09:09:55.579Z,100102.23
2019-05-03T09:12:25.413Z,100108.25
2019-05-03T09:14:56.260Z,100106.45
2019-05-03T09:17:26.409Z,100111.02
2019-05-03T09:19:56.403Z,100101.73
2019-05-03T09:22:26.478Z,100103.06
2019-05-03T09:24:56.416Z,100114.02
2019-05-03T09:27:26.551Z,100106.70
2019-05-03T09:29:56.492Z,100106.58
2019-05-03T09:32:26.625Z,100106.08
2019-05-03T09:34:56.556Z,100109.56
2019-05-03T09:37:26.497Z,100100.45
2019-05-03T09:39:56.432Z,100100.70
2019-05-03T09:42:26.268Z,100103.78
2019-05-03T09:44:57.357Z,100102.58
2019-05-03T09:47:27.357Z,100096.80
2019-05-03T09:49:57.300Z,100088.68
2019-05-03T09:52:27.443Z,100085.34
2019-05-03T09:54:58.932Z,100087.20
2019-05-03T09:57:28.862Z,100071.64
2019-05-03T10:00:00.149Z,100078.16
2019-05-03T10:02:30.356Z,100079.97
2019-05-03T10:05:00.286Z,100066.97
2019-05-03T10:07:30.114Z,100068.47
2019-05-03T10:10:00.014Z,100090.98
2019-05-03T10:12:29.957Z,100090.11
2019-05-03T10:14:59.931Z,100078.25
2019-05-03T10:17:31.488Z,100057.12
2019-05-03T10:20:01.424Z,100090.03
2019-05-03T10:22:31.362Z,100081.59
2019-05-03T10:25:01.291Z,100091.91
2019-05-03T10:27:34.710Z,100084.09
2019-05-03T10:30:12.445Z,100080.27
2019-05-03T10:32:39.374Z,100073.16
2019-05-03T10:35:15.151Z,100073.86
2019-05-03T10:37:45.450Z,100062.83
2019-05-03T10:40:18.400Z,100061.48
2019-05-03T10:42:48.427Z,100044.51
2019-05-03T10:45:18.469Z,100035.13
2019-05-03T10:47:47.707Z,100050.19
2019-05-03T10:50:17.720Z,100030.13
2019-05-03T10:52:48.510Z,100057.11
2019-05-03T10:55:18.208Z,100071.43
2019-05-03T10:57:49.779Z,100072.16
2019-05-03T11:00:42.415Z,100065.99
2019-05-03T11:02:57.413Z,100070.70
2019-05-03T11:05:27.363Z,100072.30
2019-05-03T11:07:57.395Z,100075.17
2019-05-03T11:10:27.843Z,100084.58
2019-05-03T11:12:57.087Z,100083.96
2019-05-03T11:15:26.988Z,100081.51
2019-05-03T11:17:56.921Z,100088.45
2019-05-03T11:20:37.512Z,100057.87
2019-05-03T11:23:10.061Z,100065.09
2019-05-03T11:25:40.026Z,100065.72
2019-05-03T11:28:11.596Z,100059.96
2019-05-03T11:30:53.470Z,100051.97
2019-05-03T11:33:21.692Z,100052.98
2019-05-03T11:35:55.132Z,100050.05
2019-05-03T11:38:29.329Z,100053.13
2019-05-03T11:40:59.281Z,100036.95
2019-05-03T11:43:28.514Z,100037.11
2019-05-03T11:45:58.427Z,100063.58
2019-05-03T11:48:27.671Z,100060.16
2019-05-03T11:50:57.577Z,100064.55
2019-05-03T11:53:27.514Z,100070.12
2019-05-03T11:55:57.434Z,100053.55
2019-05-03T11:58:27.465Z,100066.29
2019-05-03T12:01:15.374Z,100065.75
2019-05-03T12:03:40.489Z,100074.00
2019-05-03T12:06:10.486Z,100079.76
2019-05-03T12:08:40.416Z,100070.95
2019-05-03T12:11:10.451Z,100056.04
2019-05-03T12:13:40.384Z,100053.06
2019-05-03T12:16:17.032Z,100039.75
2019-05-03T12:18:50.287Z,100030.16
2019-05-03T12:21:17.153Z,100035.52
2019-05-03T12:23:46.245Z,100024.75
2019-05-03T12:26:17.614Z,100026.18
2019-05-03T12:28:55.537Z,100030.99
2019-05-03T12:31:36.569Z,100024.13
2019-05-03T12:33:57.250Z,100025.20
2019-05-03T12:36:27.284Z,100018.98
2019-05-03T12:38:57.238Z,100014.11
2019-05-03T12:41:28.792Z,100005.27
2019-05-03T12:43:58.938Z,100014.42
2019-05-03T12:46:28.977Z,100017.08
2019-05-03T12:48:59.013Z,100017.30
2019-05-03T12:51:28.912Z,100019.22
2019-05-03T12:53:58.888Z,100022.36
2019-05-03T12:56:32.699Z,100020.02
2019-05-03T12:59:06.031Z,100014.34
2019-05-03T13:01:41.599Z,100003.39
2019-05-03T13:04:16.508Z,100011.27
2019-05-03T13:06:47.985Z,100009.17
2019-05-03T13:09:17.918Z,100005.45
2019-05-03T13:11:54.769Z,100015.41
2019-05-03T13:14:22.206Z,100007.13
2019-05-03T13:16:52.222Z,100012.42
2019-05-03T13:19:22.263Z,100010.23
2019-05-03T13:21:55.429Z,100010.68
2019-05-03T13:24:26.012Z,100011.59
2019-05-03T13:26:56.165Z,100013.66
2019-05-03T13:29:28.775Z,100007.52
2019-05-03T13:32:02.100Z,100006.89
2019-05-03T13:34:30.455Z,100002.75
2019-05-03T13:37:01.209Z,99997.72
2019-05-03T13:39:32.685Z,100010.48
2019-05-03T13:42:03.056Z,100019.28
2019-05-03T13:44:33.080Z,100015.58
2019-05-03T13:47:04.525Z,100010.05
2019-05-03T13:49:35.646Z,100006.73
2019-05-03T13:52:05.622Z,100009.59
2019-05-03T13:54:35.617Z,100013.68
2019-05-03T13:57:05.807Z,100008.48
2019-05-03T13:59:35.740Z,100008.24
2019-05-03T14:02:15.047Z,100010.41
2019-05-03T14:04:49.472Z,100020.55
2019-05-03T14:07:10.153Z,100006.73
2019-05-03T14:09:40.086Z,100010.80
2019-05-03T14:12:10.217Z,99998.80
2019-05-03T14:14:56.387Z,99999.74
2019-05-03T14:17:29.290Z,100004.97
2019-05-03T14:20:14.835Z,100012.05
2019-05-03T14:22:46.573Z,100010.06
2019-05-03T14:25:16.511Z,100012.30
2019-05-03T14:27:48.409Z,100009.77
2019-05-03T14:30:20.469Z,100017.77
2019-05-03T14:32:52.038Z,100019.87
2019-05-03T14:35:21.882Z,100011.87
2019-05-03T14:37:54.926Z,100012.30
2019-05-03T14:40:25.216Z,100008.20
2019-05-03T14:42:55.570Z,100009.87
2019-05-03T14:45:25.922Z,100011.42
2019-05-03T14:47:57.864Z,100010.73
2019-05-03T14:50:27.834Z,100010.70
2019-05-03T14:52:57.759Z,100017.88
2019-05-03T14:55:29.251Z,100008.67
2019-05-03T14:58:03.440Z,100001.39
2019-05-03T15:00:35.694Z,100009.14
2019-05-03T15:03:09.879Z,100006.72
2019-05-03T15:05:41.045Z,100019.00
2019-05-03T15:08:14.889Z,100006.23
2019-05-03T15:10:45.662Z,100006.33
2019-05-03T15:13:18.612Z,100017.83
2019-05-03T15:15:48.659Z,100012.12
2019-05-03T15:18:18.694Z,100017.31
2019-05-03T15:20:50.693Z,100013.84
2019-05-03T15:23:20.808Z,100021.13
2019-05-03T15:25:52.129Z,100021.95
2019-05-03T15:28:25.124Z,100021.88
2019-05-03T15:30:55.493Z,100018.67
2019-05-03T15:33:25.971Z,100022.57
2019-05-03T15:35:55.880Z,100019.11
2019-05-03T15:38:25.836Z,100024.36
2019-05-03T15:40:55.762Z,100024.79
2019-05-03T15:43:45.557Z,100023.79
2019-05-03T15:46:20.086Z,100033.66
2019-05-03T15:48:54.981Z,100043.38
2019-05-03T15:51:24.760Z,100034.01
2019-05-03T15:53:58.413Z,100042.38
2019-05-03T15:56:28.416Z,100048.19
2019-05-03T15:58:58.321Z,100071.19
2019-05-03T16:01:28.284Z,100080.71
2019-05-03T16:03:58.442Z,100089.17
2019-05-03T16:06:28.353Z,100071.00
2019-05-03T16:08:58.308Z,100080.59
2019-05-03T16:11:28.329Z,100065.00
2019-05-03T16:13:58.369Z,100084.41
2019-05-03T16:16:28.323Z,100078.27
2019-05-03T16:18:58.345Z,100078.84
2019-05-03T16:21:28.781Z,100080.51
2019-05-03T16:23:58.829Z,100084.91
2019-05-03T16:26:28.858Z,100091.92
2019-05-03T16:29:04.681Z,100088.52
2019-05-03T16:31:34.792Z,100089.66
2019-05-03T16:34:05.017Z,100080.11
2019-05-03T16:36:36.854Z,100087.52
2019-05-03T16:39:07.612Z,100088.66
2019-05-03T16:41:39.097Z,100090.09
2019-05-03T16:44:09.030Z,100097.75
2019-05-03T16:46:38.998Z,100086.55
2019-05-03T16:49:10.637Z,100100.65
2019-05-03T16:51:40.602Z,100094.92
2019-05-03T16:54:11.137Z,100101.34
2019-05-03T16:56:41.959Z,100110.09
2019-05-03T16:59:11.914Z,100109.52
2019-05-03T17:01:41.866Z,100115.28
2019-05-03T17:04:29.784Z,100124.09
2019-05-03T17:07:08.625Z,100116.45
2019-05-03T17:09:42.953Z,100136.74
2019-05-03T17:12:28.125Z,100137.34
2019-05-03T17:15:05.002Z,100148.05
2019-05-03T17:17:34.657Z,100139.54
2019-05-03T17:20:09.591Z,100150.53
2019-05-03T17:22:39.844Z,100151.13
2019-05-03T17:25:10.188Z,100151.70
2019-05-03T17:27:40.215Z,100159.14
2019-05-03T17:30:10.436Z,100166.27
2019-05-03T17:32:40.493Z,100169.05
2019-05-03T17:35:12.022Z,100172.37
2019-05-03T17:37:41.945Z,100169.89
2019-05-03T17:40:29.993Z,100169.08
2019-05-03T17:43:10.711Z,100180.60
2019-05-03T17:45:41.693Z,100181.98
2019-05-03T17:48:11.492Z,100191.31
2019-05-03T17:50:41.426Z,100187.19
2019-05-03T17:53:15.930Z,100194.05
2019-05-03T17:55:50.611Z,100203.36
2019-05-03T17:58:31.180Z,100198.70
2019-05-03T18:01:05.598Z,100199.81
2019-05-03T18:03:38.825Z,100195.12
2019-05-03T18:06:14.960Z,100202.28
2019-05-03T18:08:55.714Z,100198.95
2019-05-03T18:11:29.312Z,100199.51
2019-05-03T18:13:59.133Z,100207.42
2019-05-03T18:16:29.054Z,100198.91
2019-05-03T18:18:59.090Z,100201.92
2019-05-03T18:21:29.021Z,100207.15
2019-05-03T18:23:58.972Z,100202.14
2019-05-03T18:26:28.999Z,100204.59
2019-05-03T18:28:59.337Z,100203.47
2019-05-03T18:31:29.238Z,100207.03
2019-05-03T18:34:00.759Z,100212.17
2019-05-03T18:36:32.344Z,100222.02
2019-05-03T18:39:02.459Z,100218.72
2019-05-03T18:41:34.575Z,100232.68
2019-05-03T18:44:15.754Z,100223.59
2019-05-03T18:46:55.060Z,100222.00
2019-05-03T18:49:26.244Z,100232.30
2019-05-03T18:51:56.162Z,100235.55
2019-05-03T18:54:26.204Z,100239.30
2019-05-03T18:56:56.249Z,100237.59
2019-05-03T18:59:27.714Z,100245.69
2019-05-03T19:01:58.262Z,100245.11
2019-05-03T19:04:34.251Z,100238.78
2019-05-03T19:07:04.616Z,100248.34
2019-05-03T19:09:40.862Z,100254.03
2019-05-03T19:12:21.838Z,100250.69
2019-05-03T19:14:51.865Z,100263.40
2019-05-03T19:17:24.889Z,100254.79
2019-05-03T19:19:56.444Z,100256.09
2019-05-03T19:22:27.497Z,100267.23
2019-05-03T19:24:57.527Z,100259.09
2019-05-03T19:27:27.470Z,100263.63
2019-05-03T19:29:57.393Z,100261.95
2019-05-03T19:32:28.281Z,100271.78
2019-05-03T19:34:59.524Z,100275.01
2019-05-03T19:37:29.568Z,100270.91
2019-05-03T19:39:59.489Z,100277.71
2019-05-03T19:42:29.434Z,100274.42
2019-05-03T19:44:59.327Z,100272.98
2019-05-03T19:47:30.737Z,100280.03
2019-05-03T19:50:00.696Z,100275.59
2019-05-03T19:52:34.675Z,100283.47
2019-05-03T19:55:05.248Z,100288.55
2019-05-03T19:57:39.469Z,100288.72
2019-05-03T20:00:09.912Z,100296.08
2019-05-03T20:02:41.484Z,100296.00
2019-05-03T20:05:29.013Z,100301.95
2019-05-03T20:08:00.581Z,100297.17
2019-05-03T20:10:31.950Z,100298.73
2019-05-03T20:13:01.916Z,100302.34
2019-05-03T20:15:31.844Z,100302.91
2019-05-03T20:18:01.766Z,100303.88
2019-05-03T20:20:31.694Z,100304.56
2019-05-03T20:23:01.727Z,100315.41
2019-05-03T20:25:31.661Z,100314.03
2019-05-03T20:28:01.522Z,100307.65
2019-05-03T20:30:31.435Z,100310.82
2019-05-03T20:33:01.571Z,100314.24
2019-05-03T20:35:31.611Z,100313.06
2019-05-03T20:38:02.152Z,100311.18
2019-05-03T20:40:35.799Z,100314.87
2019-05-03T20:43:25.842Z,100312.06
2019-05-03T20:45:57.419Z,100321.46
2019-05-03T20:48:27.353Z,100323.39
2019-05-03T20:50:57.289Z,100327.57
2019-05-03T20:53:27.221Z,100329.22
2019-05-03T20:55:57.166Z,100330.62
2019-05-03T20:58:27.059Z,100331.10
2019-05-03T21:00:57.038Z,100332.95
2019-05-03T21:03:27.164Z,100329.94
2019-05-03T21:05:57.104Z,100335.09
2019-05-03T21:08:27.155Z,100338.67
2019-05-03T21:10:57.070Z,100338.21
2019-05-03T21:13:39.196Z,100339.38
2019-05-03T21:16:15.236Z,100343.14
2019-05-03T21:18:52.979Z,100346.52
2019-05-03T21:21:30.575Z,100346.47
2019-05-03T21:24:02.065Z,100345.39
2019-05-03T21:26:32.080Z,100347.95
2019-05-03T21:29:02.008Z,100342.59
2019-05-03T21:31:31.946Z,100336.51
2019-05-03T21:34:01.976Z,100342.63
2019-05-03T21:36:31.912Z,100343.70
2019-05-03T21:39:01.947Z,100349.17
2019-05-03T21:41:35.213Z,100339.84
2019-05-03T21:44:05.302Z,100344.12
2019-05-03T21:46:39.750Z,100349.11
2019-05-03T21:49:11.239Z,100344.95
2019-05-03T21:51:41.153Z,100342.56
2019-05-03T21:54:11.168Z,100348.73
2019-05-03T21:56:41.223Z,100344.28
2019-05-03T21:59:11.246Z,100349.80
2019-05-03T22:01:42.713Z,100346.41
2019-05-03T22:04:12.852Z,100357.23
2019-05-03T22:06:44.425Z,100353.61
2019-05-03T22:09:14.569Z,100349.86
2019-05-03T22:11:44.741Z,100342.42
2019-05-03T22:14:16.380Z,100345.97
2019-05-03T22:16:47.954Z,100351.38
2019-05-03T22:19:19.470Z,100352.61
2019-05-03T22:22:05.470Z,100341.22
2019-05-03T22:24:37.083Z,100342.77
2019-05-03T22:27:08.493Z,100345.59
2019-05-03T22:29:38.997Z,100347.60
2019-05-03T22:32:09.030Z,100350.19
2019-05-03T22:34:39.075Z,100338.75
2019-05-03T22:37:09.110Z,100349.91
2019-05-03T22:39:40.079Z,100344.93
2019-05-03T22:42:10.000Z,100346.16
2019-05-03T22:44:39.939Z,100344.02
2019-05-03T22:47:10.077Z,100341.44
2019-05-03T22:49:41.036Z,100343.73
2019-05-03T22:52:10.969Z,100340.38
2019-05-03T22:54:40.857Z,100341.68
2019-05-03T22:57:10.851Z,100343.89
2019-05-03T22:59:40.870Z,100341.39
2019-05-03T23:02:10.810Z,100343.78
2019-05-03T23:04:40.730Z,100341.67
2019-05-03T23:07:10.691Z,100344.39
2019-05-03T23:09:40.708Z,100340.54
2019-05-03T23:12:12.154Z,100336.97
2019-05-03T23:14:42.108Z,100338.66
2019-05-03T23:17:12.070Z,100342.34
2019-05-03T23:19:44.887Z,100341.14
2019-05-03T23:22:25.329Z,100350.59
2019-05-03T23:24:55.357Z,100348.50
2019-05-03T23:27:25.293Z,100342.16
2019-05-03T23:29:55.136Z,100353.63
2019-05-03T23:32:25.177Z,100346.53
2019-05-03T23:34:56.091Z,100349.52
2019-05-03T23:37:25.965Z,100348.97
2019-05-03T23:39:56.087Z,100349.25
2019-05-03T23:42:26.027Z,100350.91
2019-05-03T23:44:55.960Z,100349.11
2019-05-03T23:47:30.163Z,100348.74
2019-05-03T23:50:00.122Z,100357.83
2019-05-03T23:52:35.282Z,100369.79
2019-05-03T23:55:21.780Z,100384.61
2019-05-03T23:57:51.711Z,100385.68
